Time;durP1;ratioP1;P1;durP2;ratioP2;P2;SDS_P1;SDS_P2;PMS_P1;PMS_P2;Temp;Humidity;BMP_temperature;BMP_pressure;BME280_temperature;BME280_humidity;BME280_pressure;Samples;Min_cycle;Max_cycle;Signal;HPM_P1;HPM_P2
2022/05/16 00:02:19;;;;;;;13.30;12.40;;;17.20;99.90;;;;;;4934633;29;20948;-78
2022/05/16 03:34:51;;;;;;;15.60;14.60;;;16.10;99.90;;;;;;6047422;23;20420;31
2022/05/16 03:37:19;;;;;;;15.17;14.10;;;16.10;99.90;;;;;;4958026;28;20465;-73
2022/05/16 03:42:30;;;;;;;15.10;14.07;;;16.20;99.90;;;;;;4968392;28;20478;-73
2022/05/16 03:44:57;;;;;;;14.70;13.60;;;16.30;99.90;;;;;;4972353;28;20459;-73
2022/05/16 03:47:24;;;;;;;15.33;14.20;;;16.20;99.90;;;;;;4972271;28;20462;-75
2022/05/16 03:49:51;;;;;;;15.57;14.20;;;16.30;99.90;;;;;;4971912;28;20483;-74
2022/05/16 03:52:19;;;;;;;17.00;15.50;;;16.30;99.90;;;;;;4972018;28;20886;-74
2022/05/16 03:54:46;;;;;;;16.87;15.30;;;16.30;99.90;;;;;;4971904;28;20938;-73
2022/05/16 03:57:13;;;;;;;15.30;14.20;;;16.30;99.90;;;;;;4971721;28;20443;-73
2022/05/16 03:59:39;;;;;;;14.80;13.90;;;16.30;99.90;;;;;;4971495;28;20487;-74
2022/05/16 04:02:08;;;;;;;16.07;14.70;;;16.30;99.90;;;;;;4971829;28;20447;-75
2022/05/16 04:04:35;;;;;;;16.07;14.80;;;16.30;99.90;;;;;;4971566;28;20444;-75
2022/05/16 04:07:01;;;;;;;15.60;14.50;;;16.40;99.90;;;;;;4971723;28;20446;-74
2022/05/16 04:09:30;;;;;;;15.30;14.30;;;16.40;99.90;;;;;;4971500;28;20934;-75
2022/05/16 04:11:57;;;;;;;17.33;16.33;;;16.40;99.90;;;;;;4969292;28;20952;-75
2022/05/16 04:14:25;;;;;;;17.47;16.27;;;16.40;99.90;;;;;;4971717;28;20448;-74
2022/05/16 04:16:51;;;;;;;15.27;14.10;;;16.40;99.90;;;;;;4971795;28;20448;-74
2022/05/16 04:19:18;;;;;;;15.30;14.10;;;16.40;99.90;;;;;;4970959;28;20483;-74
2022/05/16 04:21:45;;;;;;;15.27;14.07;;;16.40;99.90;;;;;;4971316;28;20994;-74
2022/05/16 04:24:11;;;;;;;15.10;14.10;;;16.50;99.90;;;;;;4971503;28;20448;-75
2022/05/16 04:26:39;;;;;;;15.40;14.27;;;16.50;99.90;;;;;;4971545;28;20539;-75
2022/05/16 04:29:06;;;;;;;15.00;13.87;;;16.60;99.90;;;;;;4971137;28;20440;-75
2022/05/16 04:31:33;;;;;;;15.70;14.30;;;16.70;99.90;;;;;;4970979;28;20440;-75
2022/05/16 04:33:59;;;;;;;17.47;15.80;;;16.80;99.90;;;;;;4965443;28;20464;-74
2022/05/16 04:36:26;;;;;;;16.90;15.20;;;16.80;99.90;;;;;;4951597;28;20527;-76
2022/05/16 04:38:53;;;;;;;16.40;14.63;;;16.80;99.90;;;;;;4952233;29;20463;-76
2022/05/16 04:44:06;;;;;;;22.00;19.83;;;16.80;99.90;;;;;;4948290;29;21201;-85
2022/05/16 04:46:32;;;;;;;25.70;23.70;;;16.60;99.90;;;;;;4951987;28;20453;-82
2022/05/16 04:48:59;;;;;;;26.37;24.60;;;16.30;99.90;;;;;;4952663;29;20453;-86
2022/05/16 04:51:26;;;;;;;27.60;25.53;;;16.10;99.90;;;;;;4956350;29;20858;-88
2022/05/16 04:53:52;;;;;;;28.20;26.70;;;15.80;99.90;;;;;;4952642;29;20437;-85
2022/05/16 04:56:19;;;;;;;27.30;25.63;;;15.70;99.90;;;;;;4951794;29;20451;-80
2022/05/16 04:58:46;;;;;;;26.33;24.77;;;15.70;99.90;;;;;;4951665;29;20803;-79
2022/05/16 05:01:14;;;;;;;27.07;25.40;;;15.70;99.90;;;;;;4951198;29;20836;-78
2022/05/16 05:03:41;;;;;;;23.80;22.47;;;15.60;99.90;;;;;;4951607;29;20459;-76
2022/05/16 05:06:07;;;;;;;22.27;21.07;;;15.80;99.90;;;;;;4951719;29;20445;-76
2022/05/16 05:08:34;;;;;;;21.10;19.60;;;15.70;99.90;;;;;;4951596;29;20471;-74
2022/05/16 05:16:31;;;;;;;19.20;17.80;;;16.20;99.90;;;;;;4952712;29;20517;-76
2022/05/16 05:18:58;;;;;;;19.20;17.90;;;16.40;99.90;;;;;;4952522;29;20464;-77
2022/05/16 05:21:25;;;;;;;19.53;18.13;;;16.50;99.90;;;;;;4952549;29;20480;-76
2022/05/16 05:23:52;;;;;;;20.37;18.70;;;16.60;99.90;;;;;;4952710;28;20448;-76
2022/05/16 05:26:19;;;;;;;18.73;17.40;;;16.70;99.90;;;;;;4952499;29;20567;-76
2022/05/16 05:28:46;;;;;;;18.17;16.87;;;16.80;99.90;;;;;;4952289;29;20456;-75
2022/05/16 05:31:13;;;;;;;17.70;16.60;;;16.90;99.90;;;;;;4952488;29;20448;-76
2022/05/16 05:33:41;;;;;;;17.50;16.40;;;16.90;99.90;;;;;;4952798;28;20480;-75
2022/05/16 05:36:09;;;;;;;19.20;17.93;;;16.90;99.90;;;;;;4951461;28;21009;-77
2022/05/16 05:38:36;;;;;;;17.80;16.17;;;17.10;99.90;;;;;;4951105;28;20472;-74
2022/05/16 05:41:03;;;;;;;17.23;16.03;;;17.20;99.90;;;;;;4950786;29;21003;-75
2022/05/16 05:43:30;;;;;;;17.40;15.70;;;17.20;99.90;;;;;;4950086;29;20464;-74
2022/05/16 05:45:56;;;;;;;15.90;14.80;;;17.20;99.90;;;;;;4949760;29;20484;-73
2022/05/16 05:48:23;;;;;;;16.67;15.10;;;17.20;99.90;;;;;;4952838;28;20809;-74
2022/05/16 05:50:51;;;;;;;16.37;15.27;;;17.20;99.90;;;;;;4954715;29;20451;-74
2022/05/16 05:53:18;;;;;;;17.40;15.83;;;17.20;99.90;;;;;;4954647;29;20455;-76
2022/05/16 05:55:47;;;;;;;17.27;16.07;;;17.20;99.90;;;;;;4955108;29;20487;-74
2022/05/16 05:58:14;;;;;;;16.53;15.13;;;17.20;99.90;;;;;;4954888;29;20460;-73
2022/05/16 06:00:41;;;;;;;15.50;14.30;;;17.20;99.90;;;;;;4955223;29;20495;-76
2022/05/16 06:03:08;;;;;;;14.77;13.77;;;17.30;99.90;;;;;;4956333;29;20448;-76
2022/05/16 06:05:35;;;;;;;20.87;14.90;;;17.30;99.90;;;;;;4955388;29;20456;-76
2022/05/16 06:08:04;;;;;;;16.27;15.20;;;17.30;99.90;;;;;;4955838;29;20475;-74
2022/05/16 06:10:31;;;;;;;15.50;14.23;;;17.40;99.90;;;;;;4955881;29;20511;-75
2022/05/16 06:12:58;;;;;;;13.23;12.23;;;17.40;99.90;;;;;;4956002;29;20457;-74
2022/05/16 06:15:25;;;;;;;14.37;13.57;;;17.50;99.90;;;;;;4956153;29;20448;-74
2022/05/16 06:17:51;;;;;;;13.93;13.13;;;17.50;99.90;;;;;;4955748;28;20448;-75
2022/05/16 06:20:18;;;;;;;15.63;14.40;;;17.60;99.90;;;;;;4954664;28;20507;-75
2022/05/16 06:22:45;;;;;;;15.20;14.30;;;17.80;99.90;;;;;;4953997;28;20477;-75
2022/05/16 06:27:56;;;;;;;17.83;16.27;;;18.10;99.90;;;;;;4952880;29;20847;-76
2022/05/16 06:30:23;;;;;;;23.57;15.83;;;18.20;99.90;;;;;;4955891;29;20444;-75
2022/05/16 06:32:50;;;;;;;29.33;16.30;;;18.30;99.90;;;;;;4954941;29;20468;-74
2022/05/16 06:35:17;;;;;;;18.23;16.40;;;18.40;99.90;;;;;;4955200;29;20491;-74
2022/05/16 06:37:45;;;;;;;20.37;17.50;;;18.50;99.90;;;;;;4955079;29;20468;-75
2022/05/16 06:40:15;;;;;;;17.50;15.73;;;18.60;99.90;;;;;;4951627;29;20547;-75
2022/05/16 06:42:41;;;;;;;17.30;15.90;;;18.70;99.90;;;;;;4936559;29;20469;-75
2022/05/16 06:45:10;;;;;;;16.47;15.37;;;18.80;99.90;;;;;;4936431;29;20460;-75
2022/05/16 06:47:36;;;;;;;16.30;14.90;;;18.70;99.90;;;;;;4936661;29;20826;-76
2022/05/16 06:50:04;;;;;;;18.03;16.10;;;18.90;99.90;;;;;;4947343;29;20480;-76
2022/05/16 06:52:31;;;;;;;15.80;14.50;;;19.40;99.90;;;;;;4954794;29;20453;-76
2022/05/16 06:54:58;;;;;;;14.87;14.03;;;20.20;99.90;;;;;;4955264;29;20515;-77
2022/05/16 06:57:26;;;;;;;14.67;13.97;;;20.60;99.90;;;;;;4952190;29;20456;-76
2022/05/16 06:59:52;;;;;;;14.43;13.63;;;21.00;99.90;;;;;;4954200;28;20476;-77
2022/05/16 07:02:19;;;;;;;14.87;13.67;;;21.40;99.90;;;;;;4954838;29;20463;-76
2022/05/16 07:04:46;;;;;;;15.23;14.00;;;21.70;99.90;;;;;;4954674;29;20448;-78
2022/05/16 07:07:12;;;;;;;13.93;12.90;;;22.10;98.80;;;;;;4954452;29;20461;-76
2022/05/16 07:09:39;;;;;;;13.97;12.97;;;22.20;98.30;;;;;;4955271;29;20539;-78
2022/05/16 07:12:07;;;;;;;13.43;12.50;;;22.40;98.70;;;;;;4954788;29;20508;-76
2022/05/16 07:14:37;;;;;;;12.43;11.83;;;22.70;97.60;;;;;;4954589;29;20445;-77
2022/05/16 07:17:04;;;;;;;13.40;12.80;;;22.70;97.80;;;;;;4954383;29;20879;-79
2022/05/16 07:19:31;;;;;;;13.43;12.83;;;22.90;97.70;;;;;;4954695;29;20464;-77
2022/05/16 07:21:58;;;;;;;13.40;12.70;;;23.40;97.20;;;;;;4955028;29;20484;-77
2022/05/16 07:24:26;;;;;;;14.40;13.50;;;24.10;96.00;;;;;;4955195;29;20491;-76
2022/05/16 07:29:38;;;;;;;14.63;13.73;;;23.70;96.30;;;;;;4954734;29;20480;-77
2022/05/16 07:32:05;;;;;;;13.90;13.20;;;23.90;96.60;;;;;;4954843;29;20827;-78
2022/05/16 07:34:33;;;;;;;14.13;13.40;;;24.30;95.80;;;;;;4955087;28;20482;-76
2022/05/16 07:36:59;;;;;;;14.17;13.57;;;25.30;94.50;;;;;;4954480;29;20886;-75
2022/05/16 07:39:26;;;;;;;15.10;14.07;;;25.80;93.30;;;;;;4954296;29;20885;-75
2022/05/16 07:41:54;;;;;;;13.73;13.03;;;25.40;93.30;;;;;;4954179;29;20491;-75
2022/05/16 07:44:21;;;;;;;15.83;15.03;;;25.40;93.90;;;;;;4954106;29;20491;-76
2022/05/16 07:46:49;;;;;;;14.57;13.87;;;24.80;95.30;;;;;;4953857;29;20842;-75
2022/05/16 07:49:17;;;;;;;14.50;13.40;;;24.60;96.00;;;;;;4953769;29;20496;-75
2022/05/16 07:51:43;;;;;;;13.93;13.13;;;24.50;96.30;;;;;;4954053;29;20503;-75
2022/05/16 07:54:10;;;;;;;15.40;14.13;;;24.10;97.00;;;;;;4954106;29;20457;-75
2022/05/16 07:56:38;;;;;;;17.20;15.43;;;23.90;97.70;;;;;;4953918;29;20452;-75
2022/05/16 07:59:04;;;;;;;16.83;15.33;;;23.70;98.70;;;;;;4953976;29;20448;-76
2022/05/16 08:01:31;;;;;;;16.60;15.50;;;23.30;99.60;;;;;;4953735;29;21013;-75
2022/05/16 08:03:59;;;;;;;14.70;13.40;;;23.40;99.80;;;;;;4953810;29;20456;-76
2022/05/16 08:06:27;;;;;;;13.83;12.93;;;23.80;98.90;;;;;;4953586;29;21044;-76
2022/05/16 08:11:38;;;;;;;11.87;11.30;;;24.00;98.00;;;;;;4952847;28;20570;-76
2022/05/16 08:14:05;;;;;;;12.33;11.77;;;23.90;98.30;;;;;;4953481;29;20460;-76
2022/05/16 08:16:32;;;;;;;13.87;13.00;;;23.70;98.70;;;;;;4953303;29;20527;-76
2022/05/16 08:19:00;;;;;;;13.90;13.20;;;23.50;99.10;;;;;;4953489;29;20460;-75
2022/05/16 08:21:27;;;;;;;13.63;12.63;;;23.10;99.90;;;;;;4953371;29;20853;-75
2022/05/16 08:23:53;;;;;;;14.13;13.30;;;23.00;99.90;;;;;;4953998;29;20813;-76
2022/05/16 08:26:20;;;;;;;19.73;18.73;;;23.00;99.90;;;;;;4953423;29;20457;-79
2022/05/16 08:28:47;;;;;;;21.97;20.33;;;22.70;99.90;;;;;;4953362;29;20456;-76
2022/05/16 08:31:14;;;;;;;19.03;18.13;;;22.10;99.90;;;;;;4953537;28;20566;-74
2022/05/16 08:33:42;;;;;;;19.20;18.10;;;21.70;99.90;;;;;;4953858;28;20480;-74
2022/05/16 08:41:50;;;;;;;14.83;13.77;;;21.70;99.90;;;;;;4952254;29;20479;-75
2022/05/16 08:44:22;;;;;;;15.63;14.57;;;22.30;99.90;;;;;;4952101;29;20942;-77
2022/05/16 08:47:10;;;;;;;17.17;15.80;;;22.90;99.90;;;;;;4952873;29;20451;-76
2022/05/16 08:49:41;;;;;;;14.90;14.00;;;23.40;99.90;;;;;;4949709;29;20835;-76
2022/05/16 08:52:17;;;;;;;15.90;14.60;;;24.30;99.90;;;;;;4952252;29;20445;-75
2022/05/16 08:54:50;;;;;;;16.70;15.30;;;24.70;99.90;;;;;;4950675;29;20519;-75
2022/05/16 08:57:25;;;;;;;16.67;15.10;;;24.70;99.90;;;;;;4950063;29;20437;-75
2022/05/16 09:00:01;;;;;;;15.60;14.40;;;24.90;99.90;;;;;;4952005;29;20448;-77
2022/05/16 09:02:30;;;;;;;15.23;14.20;;;25.20;99.90;;;;;;4951832;29;20556;-77
2022/05/16 09:05:05;;;;;;;16.50;15.40;;;25.40;99.90;;;;;;4952085;29;20452;-77
2022/05/16 09:07:42;;;;;;;23.83;16.43;;;25.40;99.80;;;;;;4952250;29;20554;-76
2022/05/16 09:10:12;;;;;;;15.57;14.70;;;25.60;98.60;;;;;;4952128;29;20942;-76
2022/05/16 09:12:46;;;;;;;16.00;14.80;;;25.60;97.60;;;;;;4951667;29;20467;-77
2022/05/16 09:15:31;;;;;;;15.73;14.60;;;26.00;96.90;;;;;;4951757;29;20871;-79
2022/05/16 09:18:19;;;;;;;15.97;15.07;;;26.70;95.60;;;;;;4949223;29;20444;-79
2022/05/16 09:20:53;;;;;;;16.30;15.40;;;26.80;94.20;;;;;;4950254;29;20468;-79
2022/05/16 09:23:47;;;;;;;15.30;14.50;;;26.90;94.00;;;;;;4949257;29;20503;-78
2022/05/16 09:26:25;;;;;;;16.07;14.97;;;27.00;94.00;;;;;;4951154;29;20445;-78
2022/05/16 09:29:06;;;;;;;15.00;14.30;;;26.70;93.60;;;;;;4951292;29;20444;-78
2022/05/16 09:31:37;;;;;;;15.17;14.20;;;27.00;94.40;;;;;;4951645;28;20452;-78
2022/05/16 09:34:03;;;;;;;16.20;14.87;;;27.50;93.50;;;;;;4951554;28;20469;-78
2022/05/16 09:36:34;;;;;;;16.30;15.20;;;27.70;92.30;;;;;;4951432;29;20496;-78
2022/05/16 09:39:03;;;;;;;17.57;16.20;;;27.80;92.60;;;;;;4949578;29;20444;-78
2022/05/16 09:41:42;;;;;;;15.47;14.77;;;27.60;93.90;;;;;;4951746;29;20849;-79
2022/05/16 09:44:15;;;;;;;15.80;14.63;;;27.60;93.50;;;;;;4950465;29;20460;-78
2022/05/16 09:46:44;;;;;;;15.77;14.77;;;27.90;92.50;;;;;;4949603;29;21047;-79
2022/05/16 09:49:14;;;;;;;16.50;15.53;;;28.80;91.40;;;;;;4951753;29;20457;-79
2022/05/16 09:51:48;;;;;;;17.33;16.13;;;29.20;89.60;;;;;;4951741;29;20452;-78
2022/05/16 09:54:25;;;;;;;17.03;16.13;;;29.20;89.70;;;;;;4951741;29;20452;-78
2022/05/16 09:56:58;;;;;;;17.00;15.90;;;29.30;90.10;;;;;;4951701;28;20531;-78
2022/05/16 09:59:39;;;;;;;17.10;16.10;;;30.10;87.70;;;;;;4951087;29;20452;-79
2022/05/16 10:02:31;;;;;;;16.40;15.40;;;30.20;85.70;;;;;;4949734;29;20994;-79
2022/05/16 10:05:00;;;;;;;17.33;16.17;;;30.00;83.80;;;;;;4936717;28;20479;-79
2022/05/16 10:07:41;;;;;;;15.57;14.63;;;30.00;81.50;;;;;;4951647;29;20566;-78
2022/05/16 10:10:14;;;;;;;17.13;16.03;;;30.30;79.80;;;;;;4950945;29;20535;-77
2022/05/16 10:12:41;;;;;;;15.60;14.80;;;30.80;76.80;;;;;;4948815;29;20476;-77
2022/05/16 10:15:11;;;;;;;18.20;16.83;;;30.50;76.20;;;;;;4951196;29;20444;-79
2022/05/16 10:17:40;;;;;;;16.13;15.27;;;30.20;77.20;;;;;;4951166;28;20495;-77
2022/05/16 10:20:12;;;;;;;15.80;14.90;;;30.50;76.60;;;;;;4951078;29;20527;-77
2022/05/16 10:22:39;;;;;;;16.13;15.13;;;30.60;75.80;;;;;;4948076;29;20515;-76
2022/05/16 10:25:11;;;;;;;16.20;14.73;;;30.70;74.40;;;;;;4950904;29;20444;-76
2022/05/16 10:27:39;;;;;;;16.93;15.83;;;30.60;74.50;;;;;;4950922;29;20445;-76
2022/05/16 10:30:11;;;;;;;16.00;15.20;;;30.70;73.40;;;;;;4950892;29;20455;-76
2022/05/16 10:35:29;;;;;;;17.03;15.83;;;29.90;74.20;;;;;;4952281;28;20483;-76
2022/05/16 10:37:59;;;;;;;16.33;15.53;;;29.90;75.80;;;;;;4954692;29;20483;-78
2022/05/16 10:40:34;;;;;;;17.50;16.00;;;29.70;75.80;;;;;;4954533;29;21010;-76
2022/05/16 10:43:19;;;;;;;17.23;16.33;;;29.50;76.60;;;;;;4951701;29;20487;-77
2022/05/16 10:45:54;;;;;;;17.10;15.90;;;28.80;78.50;;;;;;4952512;29;20938;-78
2022/05/16 10:48:30;;;;;;;16.03;15.07;;;28.80;79.20;;;;;;4951728;29;20444;-76
2022/05/16 10:51:01;;;;;;;16.43;15.40;;;28.10;80.80;;;;;;4954027;29;20448;-76
2022/05/16 10:53:31;;;;;;;14.23;13.53;;;27.90;82.50;;;;;;4954184;29;20456;-77
2022/05/16 10:56:07;;;;;;;15.83;14.73;;;28.00;83.70;;;;;;4954130;29;20472;-77
2022/05/16 10:58:43;;;;;;;17.40;16.17;;;27.70;85.20;;;;;;4953591;29;20524;-77
2022/05/16 11:01:13;;;;;;;15.23;14.43;;;27.70;85.70;;;;;;4953739;29;20460;-76
2022/05/16 11:04:03;;;;;;;15.03;13.93;;;27.50;85.70;;;;;;4955044;29;20483;-77
2022/05/16 11:06:54;;;;;;;14.70;14.00;;;27.30;84.30;;;;;;4954961;29;20458;-76
2022/05/16 11:09:30;;;;;;;15.03;14.10;;;26.90;85.50;;;;;;4954538;28;20463;-76
2022/05/16 11:12:04;;;;;;;14.03;13.23;;;27.00;84.70;;;;;;4954385;29;20444;-76
2022/05/16 11:14:36;;;;;;;13.90;13.00;;;26.80;86.00;;;;;;4950869;29;20943;-76
2022/05/16 11:17:09;;;;;;;14.73;13.60;;;26.60;86.00;;;;;;4953324;29;21095;-76
2022/05/16 11:19:46;;;;;;;13.60;12.50;;;26.30;86.90;;;;;;4951541;29;20448;-76
2022/05/16 11:22:16;;;;;;;13.60;13.00;;;26.20;87.30;;;;;;4949488;29;20543;-77
2022/05/16 11:24:51;;;;;;;14.07;13.17;;;26.10;88.10;;;;;;4954520;29;20833;-77
2022/05/16 11:27:30;;;;;;;13.97;13.17;;;25.90;89.10;;;;;;4953525;29;20476;-78
2022/05/16 11:30:06;;;;;;;14.63;13.73;;;25.60;90.40;;;;;;4953136;29;20460;-78
2022/05/16 11:32:45;;;;;;;13.90;12.77;;;25.30;91.40;;;;;;4953227;29;20567;-77
2022/05/16 11:35:20;;;;;;;13.70;12.70;;;25.20;92.00;;;;;;4953192;28;20464;-78
2022/05/16 11:38:07;;;;;;;13.83;13.00;;;25.10;92.10;;;;;;4952056;29;20713;-78
2022/05/16 11:40:38;;;;;;;13.77;12.97;;;24.90;92.30;;;;;;4954406;29;20946;-78
2022/05/16 11:43:13;;;;;;;12.83;12.30;;;24.70;92.00;;;;;;4954219;29;20500;-77
2022/05/16 11:46:08;;;;;;;13.00;12.30;;;24.50;92.10;;;;;;4953834;28;20468;-78
2022/05/16 11:48:45;;;;;;;13.33;12.73;;;24.30;92.50;;;;;;4952672;29;20452;-78
2022/05/16 11:51:19;;;;;;;14.03;12.93;;;24.30;93.00;;;;;;4951877;29;20449;-77
2022/05/16 11:53:50;;;;;;;12.57;11.87;;;24.20;92.90;;;;;;4951301;29;20934;-78
2022/05/16 12:02:20;;;;;;;13.37;12.50;;;23.80;93.10;;;;;;4953595;29;20483;-78
2022/05/16 12:04:49;;;;;;;13.37;12.50;;;23.80;92.90;;;;;;4954065;29;20436;-82
2022/05/16 12:07:20;;;;;;;12.03;11.37;;;23.70;92.50;;;;;;4953755;29;20475;-78
2022/05/16 12:10:01;;;;;;;13.40;12.50;;;23.60;91.90;;;;;;4953497;29;20449;-79
2022/05/16 12:12:37;;;;;;;11.43;11.00;;;23.50;91.40;;;;;;4954025;29;20452;-78
2022/05/16 12:15:29;;;;;;;16.13;15.23;;;23.30;92.20;;;;;;4952904;29;20471;-75
2022/05/16 12:17:57;;;;;;;17.10;16.40;;;22.80;96.50;;;;;;4950758;29;20821;-76
2022/05/16 12:21:03;;;;;;;15.10;14.10;;;22.20;98.40;;;;;;4953248;29;20965;-77
2022/05/16 12:23:58;;;;;;;12.20;11.60;;;21.60;99.20;;;;;;4953196;29;20477;-78
2022/05/16 12:27:01;;;;;;;18.13;17.27;;;21.30;99.90;;;;;;4941049;29;20463;-76
2022/05/16 12:29:46;;;;;;;20.83;19.83;;;21.00;99.90;;;;;;4928841;29;20873;-79
2022/05/16 12:32:51;;;;;;;23.13;21.90;;;20.70;99.90;;;;;;4950464;29;20445;-76
2022/05/16 12:35:40;;;;;;;31.93;30.03;;;20.10;99.90;;;;;;4951054;28;20551;-75
2022/05/16 12:38:09;;;;;;;34.37;32.10;;;19.60;99.90;;;;;;4952884;29;20459;-82
2022/05/16 12:41:07;;;;;;;33.57;31.37;;;19.40;99.90;;;;;;4953013;29;20943;-80
2022/05/16 12:43:48;;;;;;;36.13;33.90;;;19.20;99.90;;;;;;4932863;29;20493;-79
2022/05/16 12:46:49;;;;;;;35.73;33.70;;;19.00;99.90;;;;;;4953068;29;20455;-81
2022/05/16 12:49:43;;;;;;;37.40;35.27;;;18.90;99.90;;;;;;4952924;29;20538;-80
2022/05/16 12:52:26;;;;;;;36.47;34.00;;;18.80;99.90;;;;;;4951345;29;20543;-79
2022/05/16 12:55:20;;;;;;;35.93;33.73;;;18.90;99.90;;;;;;4952498;29;20460;-79
2022/05/16 12:57:56;;;;;;;37.70;35.07;;;19.00;99.90;;;;;;4953062;28;20461;-78
2022/05/16 13:00:28;;;;;;;36.90;34.60;;;19.20;99.90;;;;;;4952010;28;20460;-80
2022/05/16 13:03:20;;;;;;;38.20;35.87;;;19.10;99.90;;;;;;4953227;28;20499;-80
2022/05/16 13:05:58;;;;;;;37.37;35.10;;;19.30;99.90;;;;;;4952977;29;20480;-79
2022/05/16 13:08:32;;;;;;;36.90;34.40;;;19.50;99.90;;;;;;4953700;29;20445;-82
2022/05/16 13:11:10;;;;;;;32.93;31.03;;;19.80;99.90;;;;;;4953390;29;20456;-86
2022/05/16 13:13:56;;;;;;;25.23;23.57;;;20.20;99.90;;;;;;4953400;29;20981;-84
2022/05/16 13:16:26;;;;;;;24.10;22.70;;;20.70;99.90;;;;;;4953685;29;20457;-85
2022/05/16 13:18:58;;;;;;;23.33;21.93;;;21.10;99.90;;;;;;4953756;28;21002;-84
2022/05/16 13:21:36;;;;;;;21.43;20.43;;;21.70;99.90;;;;;;4956295;29;20957;-83
2022/05/16 13:24:06;;;;;;;18.40;17.50;;;23.20;99.90;;;;;;4953627;29;20523;-83
2022/05/16 13:29:22;;;;;;;15.83;14.77;;;25.50;99.90;;;;;;4961430;29;20626;-89
2022/05/16 13:31:52;;;;;;;15.23;14.50;;;26.20;99.90;;;;;;4953722;28;20918;-86
2022/05/16 13:34:30;;;;;;;15.20;14.40;;;26.50;99.90;;;;;;4952872;28;20452;-79
2022/05/16 13:36:59;;;;;;;15.80;14.60;;;26.30;99.90;;;;;;4933263;29;20488;-81
2022/05/16 13:39:26;;;;;;;15.83;14.83;;;26.50;99.90;;;;;;4933772;29;20457;-81
2022/05/16 13:41:59;;;;;;;14.93;14.17;;;26.60;99.90;;;;;;4933777;29;20500;-84
2022/05/16 13:44:26;;;;;;;15.40;14.43;;;26.90;99.80;;;;;;4933853;29;20484;-83
2022/05/16 13:46:53;;;;;;;14.70;13.90;;;26.50;99.90;;;;;;4933888;29;20449;-83
2022/05/16 13:49:21;;;;;;;15.00;14.30;;;26.60;99.90;;;;;;4934019;29;20476;-85
2022/05/16 13:51:52;;;;;;;15.97;14.80;;;26.80;99.90;;;;;;4933761;29;20449;-83
2022/05/16 13:54:26;;;;;;;14.50;13.80;;;27.20;99.20;;;;;;4933637;29;20463;-84
2022/05/16 13:56:55;;;;;;;15.37;14.37;;;27.20;98.90;;;;;;4934023;29;20489;-80
2022/05/16 13:59:23;;;;;;;16.07;14.97;;;27.80;96.90;;;;;;4933732;29;20453;-80
2022/05/16 14:01:53;;;;;;;15.00;14.20;;;27.80;98.10;;;;;;4940406;29;20472;-78
2022/05/16 14:04:25;;;;;;;13.93;13.33;;;28.80;96.50;;;;;;4952439;29;20452;-78
2022/05/16 14:06:54;;;;;;;14.30;13.40;;;28.10;94.80;;;;;;4952430;29;21009;-79
2022/05/16 14:09:26;;;;;;;14.60;13.80;;;27.60;95.80;;;;;;4954035;28;20819;-79
2022/05/16 14:11:55;;;;;;;13.97;13.27;;;26.90;97.20;;;;;;4955706;29;20455;-80
2022/05/16 14:14:25;;;;;;;14.37;13.77;;;27.20;97.40;;;;;;4955134;29;20815;-80
2022/05/16 14:16:54;;;;;;;14.47;13.77;;;27.70;96.10;;;;;;4955289;29;20452;-80
2022/05/16 14:19:38;;;;;;;13.87;13.17;;;27.80;95.10;;;;;;4955583;29;20943;-80
2022/05/16 14:22:11;;;;;;;14.60;13.77;;;27.60;96.00;;;;;;4955512;29;20953;-79
2022/05/16 14:24:47;;;;;;;15.53;14.37;;;28.40;94.70;;;;;;4955849;29;20456;-79
2022/05/16 14:27:32;;;;;;;15.13;14.23;;;29.50;93.80;;;;;;4948818;29;20525;-79
2022/05/16 14:30:00;;;;;;;14.10;13.50;;;28.90;93.50;;;;;;4936426;29;20449;-79
2022/05/16 14:32:37;;;;;;;15.30;14.60;;;29.00;93.90;;;;;;4936949;29;20456;-78
2022/05/16 14:35:10;;;;;;;15.20;14.40;;;28.80;93.00;;;;;;4936163;29;20481;-78
2022/05/16 14:37:38;;;;;;;14.30;13.70;;;28.10;94.20;;;;;;4936401;29;20499;-78
2022/05/16 14:40:11;;;;;;;14.43;13.57;;;27.60;95.70;;;;;;4936229;29;20457;-79
2022/05/16 14:42:41;;;;;;;14.20;13.60;;;27.70;95.00;;;;;;4936133;29;20857;-78
2022/05/16 14:45:10;;;;;;;15.20;14.23;;;27.50;96.00;;;;;;4936190;29;20484;-79
2022/05/16 14:47:40;;;;;;;15.03;14.17;;;27.30;96.30;;;;;;4936133;29;20586;-78
2022/05/16 14:50:09;;;;;;;14.90;14.03;;;26.90;96.70;;;;;;4936287;29;20464;-78
2022/05/16 14:52:38;;;;;;;13.80;13.10;;;26.90;96.20;;;;;;4936059;29;20453;-78
2022/05/16 14:55:10;;;;;;;14.40;13.60;;;26.80;97.30;;;;;;4935964;29;20463;-78
2022/05/16 14:57:39;;;;;;;14.97;14.10;;;27.30;96.50;;;;;;4936460;29;20468;-79
2022/05/16 15:00:07;;;;;;;14.90;13.90;;;27.10;96.60;;;;;;4935586;29;20461;-79
2022/05/16 15:05:19;;;;;;;16.43;15.43;;;26.10;98.50;;;;;;4935852;29;21162;-80
2022/05/16 15:07:45;;;;;;;15.93;15.10;;;25.60;99.10;;;;;;4935915;29;20530;-80
2022/05/16 15:10:14;;;;;;;13.30;12.70;;;25.60;99.90;;;;;;4935685;29;20556;-80
2022/05/16 15:12:42;;;;;;;14.23;13.53;;;25.50;99.20;;;;;;4935848;29;20458;-80
2022/05/16 15:15:10;;;;;;;13.90;12.97;;;25.40;99.80;;;;;;4935652;29;20453;-79
2022/05/16 15:17:38;;;;;;;14.90;14.10;;;25.20;99.90;;;;;;4950504;29;20507;-79
2022/05/16 15:20:06;;;;;;;13.97;13.03;;;25.00;99.90;;;;;;4949823;28;20464;-79
2022/05/16 15:22:33;;;;;;;14.20;13.30;;;24.60;99.90;;;;;;4953337;29;20441;-78
2022/05/16 15:24:59;;;;;;;13.97;13.27;;;24.70;99.90;;;;;;4953281;29;20444;-79
2022/05/16 15:27:27;;;;;;;13.90;13.20;;;24.70;99.90;;;;;;4953300;29;20453;-80
2022/05/16 15:29:54;;;;;;;13.97;13.07;;;24.80;99.90;;;;;;4953336;29;20459;-79
2022/05/16 15:32:21;;;;;;;14.20;13.30;;;24.90;99.90;;;;;;4953304;29;20453;-78
2022/05/16 15:34:49;;;;;;;14.03;13.23;;;25.40;99.90;;;;;;4953159;28;20471;-79
2022/05/16 15:37:17;;;;;;;13.70;13.00;;;25.30;99.90;;;;;;4952819;29;20484;-79
2022/05/16 15:39:46;;;;;;;13.50;12.80;;;25.00;99.90;;;;;;4952839;29;20452;-79
2022/05/16 15:42:13;;;;;;;13.67;13.07;;;24.90;99.90;;;;;;4953044;29;20516;-80
2022/05/16 15:44:41;;;;;;;14.30;13.37;;;24.90;99.90;;;;;;4953061;29;20488;-81
2022/05/16 15:47:14;;;;;;;14.63;13.73;;;24.90;99.90;;;;;;4953011;29;20813;-81
2022/05/16 15:49:45;;;;;;;14.30;13.40;;;24.70;99.90;;;;;;4953266;28;20860;-80
2022/05/16 15:52:11;;;;;;;13.30;12.60;;;24.60;99.90;;;;;;4952798;28;20445;-79
2022/05/16 15:54:38;;;;;;;14.03;13.33;;;24.40;99.90;;;;;;4953057;29;20449;-80
2022/05/16 15:57:05;;;;;;;14.10;13.37;;;24.20;99.90;;;;;;4950313;29;20457;-80
2022/05/16 15:59:32;;;;;;;13.60;12.90;;;24.10;99.90;;;;;;4952721;29;20445;-80
2022/05/16 16:02:01;;;;;;;14.27;13.43;;;24.20;99.90;;;;;;4952555;29;20469;-80
2022/05/16 16:10:31;;;;;;;13.37;12.10;;;23.90;99.90;;;;;;4952891;29;20722;-82
2022/05/16 16:12:58;;;;;;;13.87;13.13;;;23.90;99.90;;;;;;4951267;29;20459;-77
2022/05/16 16:15:25;;;;;;;14.33;13.63;;;23.90;99.90;;;;;;4953021;29;20459;-80
2022/05/16 16:17:54;;;;;;;14.67;13.87;;;24.00;99.90;;;;;;4952670;29;20804;-81
2022/05/16 16:20:22;;;;;;;12.90;12.10;;;24.10;99.90;;;;;;4952629;29;20452;-81
2022/05/16 16:22:51;;;;;;;13.67;12.70;;;24.00;99.90;;;;;;4952664;29;20492;-81
2022/05/16 16:25:20;;;;;;;11.93;11.43;;;24.00;99.90;;;;;;4952328;29;21132;-81
2022/05/16 16:27:48;;;;;;;13.13;12.40;;;23.90;99.90;;;;;;4940848;29;20456;-82
2022/05/16 16:30:16;;;;;;;12.10;11.60;;;23.90;99.90;;;;;;4932925;29;21018;-81
2022/05/16 16:32:43;;;;;;;13.10;12.10;;;23.90;99.90;;;;;;4932373;29;20545;-81
2022/05/16 16:35:12;;;;;;;12.30;11.70;;;23.90;99.90;;;;;;4932949;29;20844;-81
2022/05/16 16:37:39;;;;;;;12.10;11.70;;;23.80;99.90;;;;;;4933182;29;20544;-80
2022/05/16 16:40:07;;;;;;;13.07;12.30;;;23.60;99.90;;;;;;4932964;29;20449;-80
2022/05/16 16:42:36;;;;;;;12.10;11.40;;;23.50;99.90;;;;;;4944792;29;20436;-80
2022/05/16 16:45:04;;;;;;;12.57;11.77;;;23.60;99.90;;;;;;4949313;29;20511;-81
2022/05/16 16:47:31;;;;;;;11.80;11.30;;;23.70;99.90;;;;;;4951490;29;20874;-80
2022/05/16 16:49:58;;;;;;;11.70;11.20;;;23.70;99.90;;;;;;4951681;29;20448;-80
2022/05/16 16:57:56;;;;;;;12.87;12.07;;;24.10;98.70;;;;;;4948355;29;20483;-81
2022/05/16 17:00:26;;;;;;;12.93;12.10;;;24.00;99.00;;;;;;4951341;29;20464;-81
2022/05/16 17:02:55;;;;;;;13.50;12.90;;;23.70;99.10;;;;;;4951764;29;21029;-80
2022/05/16 17:05:24;;;;;;;12.33;11.83;;;23.60;99.40;;;;;;4952229;29;20463;-81
2022/05/16 17:07:56;;;;;;;12.43;11.73;;;23.50;99.70;;;;;;4953221;29;20459;-80
2022/05/16 17:10:28;;;;;;;12.37;11.67;;;23.50;99.90;;;;;;4953241;29;20452;-80